Terminal Aerodrome Forecast
Issued by NWS Cleveland, OH

Home | Current Version | Previous Version | Graphics & Text | Print | Product List | Glossary On
Versions: 1 2 3 4 5 6 7 8 9 10 11 12 13 14 15 16 17
000
FTUS41 KCLE 221511 AAA
TAFYNG
TAF AMD
KYNG 221511Z 2215/2312 01007KT P6SM SCT020 BKN050
      TEMPO 2215/2218 BKN020
     FM230000 VRB03KT P6SM SKC
     FM230800 11005KT P6SM SKC=

USA.gov is the U.S. government's official web portal to all federal, state and local government web resources and services.